sensor_id;sensor_type;location;lat;lon;timestamp;pressure;altitude;pressure_sealevel;temperature;humidity
62418;BME280;48456;54.242;10.280;2023-12-20T00:01:38;100404.78;;;3.73;100.00
62418;BME280;48456;54.242;10.280;2023-12-20T00:04:04;100403.06;;;3.75;100.00
62418;BME280;48456;54.242;10.280;2023-12-20T00:06:31;100404.75;;;3.71;100.00
62418;BME280;48456;54.242;10.280;2023-12-20T00:08:57;100397.69;;;3.66;100.00
62418;BME280;48456;54.242;10.280;2023-12-20T00:11:24;100398.47;;;3.61;100.00
62418;BME280;48456;54.242;10.280;2023-12-20T00:13:50;100394.91;;;3.58;100.00
62418;BME280;48456;54.242;10.280;2023-12-20T00:16:17;100396.53;;;3.51;100.00
62418;BME280;48456;54.242;10.280;2023-12-20T00:18:44;100385.19;;;3.49;100.00
62418;BME280;48456;54.242;10.280;2023-12-20T00:21:10;100377.28;;;3.46;100.00
62418;BME280;48456;54.242;10.280;2023-12-20T00:23:37;100368.50;;;3.42;100.00
62418;BME280;48456;54.242;10.280;2023-12-20T00:26:03;100374.53;;;3.38;100.00
62418;BME280;48456;54.242;10.280;2023-12-20T00:28:29;100377.00;;;3.32;100.00
62418;BME280;48456;54.242;10.280;2023-12-20T00:30:56;100376.94;;;3.27;100.00
62418;BME280;48456;54.242;10.280;2023-12-20T00:33:22;100376.88;;;3.24;100.00
62418;BME280;48456;54.242;10.280;2023-12-20T00:35:49;100371.75;;;3.29;100.00
62418;BME280;48456;54.242;10.280;2023-12-20T00:38:15;100360.53;;;3.36;100.00
62418;BME280;48456;54.242;10.280;2023-12-20T00:40:42;100369.41;;;3.44;100.00
62418;BME280;48456;54.242;10.280;2023-12-20T00:43:08;100359.09;;;3.52;100.00
62418;BME280;48456;54.242;10.280;2023-12-20T00:45:35;100358.31;;;3.59;100.00
62418;BME280;48456;54.242;10.280;2023-12-20T00:48:01;100362.78;;;3.65;100.00
62418;BME280;48456;54.242;10.280;2023-12-20T00:50:28;100366.22;;;3.62;100.00
62418;BME280;48456;54.242;10.280;2023-12-20T00:52:55;100364.47;;;3.61;100.00
62418;BME280;48456;54.242;10.280;2023-12-20T00:55:22;100356.63;;;3.61;100.00
62418;BME280;48456;54.242;10.280;2023-12-20T00:57:48;100361.91;;;3.64;100.00
62418;BME280;48456;54.242;10.280;2023-12-20T01:00:15;100360.16;;;3.65;100.00
62418;BME280;48456;54.242;10.280;2023-12-20T01:02:41;100349.69;;;3.65;100.00
62418;BME280;48456;54.242;10.280;2023-12-20T01:05:08;100354.88;;;3.62;100.00
62418;BME280;48456;54.242;10.280;2023-12-20T01:07:35;100354.03;;;3.63;100.00
62418;BME280;48456;54.242;10.280;2023-12-20T01:10:02;100351.47;;;3.68;100.00
62418;BME280;48456;54.242;10.280;2023-12-20T01:12:28;100351.47;;;3.66;100.00
62418;BME280;48456;54.242;10.280;2023-12-20T01:14:54;100346.19;;;3.63;100.00
62418;BME280;48456;54.242;10.280;2023-12-20T01:17:21;100343.50;;;3.58;100.00
62418;BME280;48456;54.242;10.280;2023-12-20T01:19:47;100334.69;;;3.53;100.00
62418;BME280;48456;54.242;10.280;2023-12-20T01:22:14;100336.38;;;3.51;100.00
62418;BME280;48456;54.242;10.280;2023-12-20T01:24:40;100338.09;;;3.49;100.00
62418;BME280;48456;54.242;10.280;2023-12-20T01:27:07;100333.75;;;3.48;100.00
62418;BME280;48456;54.242;10.280;2023-12-20T01:29:33;100323.31;;;3.49;100.00
62418;BME280;48456;54.242;10.280;2023-12-20T01:31:59;100320.69;;;3.51;100.00
62418;BME280;48456;54.242;10.280;2023-12-20T01:34:26;100313.78;;;3.53;100.00
62418;BME280;48456;54.242;10.280;2023-12-20T01:36:52;100322.56;;;3.58;100.00
62418;BME280;48456;54.242;10.280;2023-12-20T01:39:19;100314.78;;;3.61;100.00
62418;BME280;48456;54.242;10.280;2023-12-20T01:41:55;100319.22;;;3.66;100.00
62418;BME280;48456;54.242;10.280;2023-12-20T01:44:21;100314.03;;;3.70;100.00
62418;BME280;48456;54.242;10.280;2023-12-20T01:46:48;100308.84;;;3.73;100.00
62418;BME280;48456;54.242;10.280;2023-12-20T01:49:14;100308.88;;;3.75;100.00
62418;BME280;48456;54.242;10.280;2023-12-20T01:51:41;100313.22;;;3.74;100.00
62418;BME280;48456;54.242;10.280;2023-12-20T01:54:08;100307.13;;;3.74;100.00
62418;BME280;48456;54.242;10.280;2023-12-20T01:56:34;100303.59;;;3.72;100.00
62418;BME280;48456;54.242;10.280;2023-12-20T01:59:01;100302.69;;;3.68;100.00
62418;BME280;48456;54.242;10.280;2023-12-20T02:01:28;100300.03;;;3.67;100.00
62418;BME280;48456;54.242;10.280;2023-12-20T02:03:55;100286.94;;;3.67;100.00
62418;BME280;48456;54.242;10.280;2023-12-20T02:06:23;100286.09;;;3.68;100.00
62418;BME280;48456;54.242;10.280;2023-12-20T02:08:50;100273.91;;;3.68;100.00
62418;BME280;48456;54.242;10.280;2023-12-20T02:11:17;100287.88;;;3.70;100.00
62418;BME280;48456;54.242;10.280;2023-12-20T02:13:44;100287.00;;;3.70;100.00
62418;BME280;48456;54.242;10.280;2023-12-20T02:16:10;100284.41;;;3.70;100.00
62418;BME280;48456;54.242;10.280;2023-12-20T02:18:36;100273.94;;;3.70;100.00
62418;BME280;48456;54.242;10.280;2023-12-20T02:21:04;100272.16;;;3.70;100.00
62418;BME280;48456;54.242;10.280;2023-12-20T02:23:31;100268.75;;;3.73;100.00
62418;BME280;48456;54.242;10.280;2023-12-20T02:25:57;100264.38;;;3.73;100.00
62418;BME280;48456;54.242;10.280;2023-12-20T02:28:24;100254.84;;;3.75;100.00
62418;BME280;48456;54.242;10.280;2023-12-20T02:30:50;100267.94;;;3.79;100.00
62418;BME280;48456;54.242;10.280;2023-12-20T02:33:17;100259.28;;;3.83;100.00
62418;BME280;48456;54.242;10.280;2023-12-20T02:35:43;100260.25;;;3.88;100.00
62418;BME280;48456;54.242;10.280;2023-12-20T02:38:10;100255.91;;;3.90;100.00
62418;BME280;48456;54.242;10.280;2023-12-20T02:40:36;100249.78;;;3.89;100.00
62418;BME280;48456;54.242;10.280;2023-12-20T02:43:02;100247.19;;;3.91;100.00
62418;BME280;48456;54.242;10.280;2023-12-20T02:45:29;100231.53;;;3.94;100.00
62418;BME280;48456;54.242;10.280;2023-12-20T02:47:55;100226.34;;;3.97;100.00
62418;BME280;48456;54.242;10.280;2023-12-20T02:50:22;100228.97;;;3.97;100.00
62418;BME280;48456;54.242;10.280;2023-12-20T02:52:48;100227.25;;;4.01;100.00
62418;BME280;48456;54.242;10.280;2023-12-20T02:55:14;100229.91;;;4.02;100.00
62418;BME280;48456;54.242;10.280;2023-12-20T02:57:41;100222.94;;;4.05;100.00
62418;BME280;48456;54.242;10.280;2023-12-20T03:00:09;100218.59;;;4.05;100.00
62418;BME280;48456;54.242;10.280;2023-12-20T03:02:35;100233.44;;;4.06;100.00
62418;BME280;48456;54.242;10.280;2023-12-20T03:05:02;100220.34;;;4.06;100.00
62418;BME280;48456;54.242;10.280;2023-12-20T03:07:29;100213.38;;;4.07;100.00
62418;BME280;48456;54.242;10.280;2023-12-20T03:09:55;100203.78;;;4.09;100.00
62418;BME280;48456;54.242;10.280;2023-12-20T03:12:40;100188.97;;;4.09;100.00
62418;BME280;48456;54.242;10.280;2023-12-20T03:15:07;100176.75;;;4.08;100.00
62418;BME280;48456;54.242;10.280;2023-12-20T03:17:33;100178.47;;;4.08;100.00
62418;BME280;48456;54.242;10.280;2023-12-20T03:20:00;100170.63;;;4.08;100.00
62418;BME280;48456;54.242;10.280;2023-12-20T03:22:26;100177.63;;;4.07;100.00
62418;BME280;48456;54.242;10.280;2023-12-20T03:24:53;100176.78;;;4.10;100.00
62418;BME280;48456;54.242;10.280;2023-12-20T03:27:19;100166.34;;;4.11;100.00
62418;BME280;48456;54.242;10.280;2023-12-20T03:29:46;100151.50;;;4.12;100.00
62418;BME280;48456;54.242;10.280;2023-12-20T03:32:12;100159.38;;;4.15;100.00
62418;BME280;48456;54.242;10.280;2023-12-20T03:34:38;100155.88;;;4.14;100.00
62418;BME280;48456;54.242;10.280;2023-12-20T03:37:05;100159.41;;;4.16;100.00
62418;BME280;48456;54.242;10.280;2023-12-20T03:39:31;100164.66;;;4.18;100.00
62418;BME280;48456;54.242;10.280;2023-12-20T03:41:58;100162.94;;;4.20;100.00
62418;BME280;48456;54.242;10.280;2023-12-20T03:44:24;100148.09;;;4.21;100.00
62418;BME280;48456;54.242;10.280;2023-12-20T03:46:51;100149.00;;;4.23;100.00
62418;BME280;48456;54.242;10.280;2023-12-20T03:49:17;100129.78;;;4.21;100.00
62418;BME280;48456;54.242;10.280;2023-12-20T03:51:44;100148.13;;;4.24;100.00
62418;BME280;48456;54.242;10.280;2023-12-20T03:54:10;100144.69;;;4.26;100.00
62418;BME280;48456;54.242;10.280;2023-12-20T03:56:37;100140.31;;;4.27;100.00
62418;BME280;48456;54.242;10.280;2023-12-20T03:59:03;100146.41;;;4.24;100.00
62418;BME280;48456;54.242;10.280;2023-12-20T04:01:31;100137.63;;;4.19;100.00
62418;BME280;48456;54.242;10.280;2023-12-20T04:03:58;100127.06;;;4.13;100.00
62418;BME280;48456;54.242;10.280;2023-12-20T04:06:24;100117.47;;;4.13;100.00
62418;BME280;48456;54.242;10.280;2023-12-20T04:08:51;100103.53;;;4.16;100.00
62418;BME280;48456;54.242;10.280;2023-12-20T04:11:18;100105.28;;;4.17;100.00
62418;BME280;48456;54.242;10.280;2023-12-20T04:13:44;100104.44;;;4.16;100.00
62418;BME280;48456;54.242;10.280;2023-12-20T04:16:11;100108.81;;;4.19;100.00
62418;BME280;48456;54.242;10.280;2023-12-20T04:18:37;100116.69;;;4.21;100.00
62418;BME280;48456;54.242;10.280;2023-12-20T04:21:04;100121.94;;;4.22;100.00
62418;BME280;48456;54.242;10.280;2023-12-20T04:23:30;100116.69;;;4.24;100.00
62418;BME280;48456;54.242;10.280;2023-12-20T04:25:57;100133.28;;;4.23;100.00
62418;BME280;48456;54.242;10.280;2023-12-20T04:28:23;100137.66;;;4.25;100.00
62418;BME280;48456;54.242;10.280;2023-12-20T04:30:50;100118.47;;;4.25;100.00
62418;BME280;48456;54.242;10.280;2023-12-20T04:33:16;100117.59;;;4.24;100.00
62418;BME280;48456;54.242;10.280;2023-12-20T04:35:42;100127.19;;;4.22;100.00
62418;BME280;48456;54.242;10.280;2023-12-20T04:38:09;100109.69;;;4.21;100.00
62418;BME280;48456;54.242;10.280;2023-12-20T04:40:35;100107.09;;;4.23;100.00
62418;BME280;48456;54.242;10.280;2023-12-20T04:43:02;100087.91;;;4.22;100.00
62418;BME280;48456;54.242;10.280;2023-12-20T04:45:28;100094.81;;;4.17;100.00
62418;BME280;48456;54.242;10.280;2023-12-20T04:47:55;100092.19;;;4.17;100.00
62418;BME280;48456;54.242;10.280;2023-12-20T04:50:21;100093.94;;;4.15;100.00
62418;BME280;48456;54.242;10.280;2023-12-20T04:52:48;100074.78;;;4.18;100.00
62418;BME280;48456;54.242;10.280;2023-12-20T04:55:14;100070.41;;;4.18;100.00
62418;BME280;48456;54.242;10.280;2023-12-20T04:57:41;100067.81;;;4.20;100.00
62418;BME280;48456;54.242;10.280;2023-12-20T05:00:07;100068.72;;;4.23;100.00
62418;BME280;48456;54.242;10.280;2023-12-20T05:02:35;100057.41;;;4.27;100.00
62418;BME280;48456;54.242;10.280;2023-12-20T05:05:02;100074.91;;;4.32;100.00
62418;BME280;48456;54.242;10.280;2023-12-20T05:07:28;100074.06;;;4.34;100.00
62418;BME280;48456;54.242;10.280;2023-12-20T05:09:55;100062.72;;;4.37;100.00
62418;BME280;48456;54.242;10.280;2023-12-20T05:12:21;100063.63;;;4.37;100.00
62418;BME280;48456;54.242;10.280;2023-12-20T05:14:47;100061.84;;;4.38;100.00
62418;BME280;48456;54.242;10.280;2023-12-20T05:17:14;100057.50;;;4.37;100.00
62418;BME280;48456;54.242;10.280;2023-12-20T05:19:40;100045.28;;;4.36;100.00
62418;BME280;48456;54.242;10.280;2023-12-20T05:22:07;100046.16;;;4.35;100.00
62418;BME280;48456;54.242;10.280;2023-12-20T05:24:33;100040.88;;;4.32;100.00
62418;BME280;48456;54.242;10.280;2023-12-20T05:27:00;100038.19;;;4.27;100.00
62418;BME280;48456;54.242;10.280;2023-12-20T05:29:26;100043.44;;;4.27;100.00
62418;BME280;48456;54.242;10.280;2023-12-20T05:31:53;100048.66;;;4.27;100.00
62418;BME280;48456;54.242;10.280;2023-12-20T05:34:19;100048.72;;;4.30;100.00
62418;BME280;48456;54.242;10.280;2023-12-20T05:36:46;100045.22;;;4.31;100.00
62418;BME280;48456;54.242;10.280;2023-12-20T05:39:13;100060.06;;;4.32;100.00
62418;BME280;48456;54.242;10.280;2023-12-20T05:41:39;100067.94;;;4.35;100.00
62418;BME280;48456;54.242;10.280;2023-12-20T05:44:06;100067.09;;;4.35;100.00
62418;BME280;48456;54.242;10.280;2023-12-20T05:46:32;100046.97;;;4.34;100.00
62418;BME280;48456;54.242;10.280;2023-12-20T05:48:59;100039.13;;;4.34;100.00
62418;BME280;48456;54.242;10.280;2023-12-20T05:51:25;100027.75;;;4.28;100.00
62418;BME280;48456;54.242;10.280;2023-12-20T05:53:52;100039.91;;;4.22;100.00
62418;BME280;48456;54.242;10.280;2023-12-20T05:56:19;100036.34;;;4.15;100.00
62418;BME280;48456;54.242;10.280;2023-12-20T05:58:45;100025.03;;;4.18;100.00
62418;BME280;48456;54.242;10.280;2023-12-20T06:01:11;100018.97;;;4.23;100.00
62418;BME280;48456;54.242;10.280;2023-12-20T06:03:41;100023.38;;;4.27;100.00
62418;BME280;48456;54.242;10.280;2023-12-20T06:06:08;100019.00;;;4.29;100.00
62418;BME280;48456;54.242;10.280;2023-12-20T06:08:42;100018.16;;;4.32;100.00
62418;BME280;48456;54.242;10.280;2023-12-20T06:11:09;100021.72;;;4.36;100.00
62418;BME280;48456;54.242;10.280;2023-12-20T06:13:36;100012.09;;;4.38;100.00
62418;BME280;48456;54.242;10.280;2023-12-20T06:16:03;100004.28;;;4.39;100.00
62418;BME280;48456;54.242;10.280;2023-12-20T06:18:29;99998.16;;;4.42;100.00
62418;BME280;48456;54.242;10.280;2023-12-20T06:20:56;99998.16;;;4.42;100.00
62418;BME280;48456;54.242;10.280;2023-12-20T06:23:22;99986.81;;;4.38;100.00
62418;BME280;48456;54.242;10.280;2023-12-20T06:25:48;99985.88;;;4.32;100.00
62418;BME280;48456;54.242;10.280;2023-12-20T06:28:15;99974.50;;;4.26;100.00
62418;BME280;48456;54.242;10.280;2023-12-20T06:30:41;99967.47;;;4.24;100.00
62418;BME280;48456;54.242;10.280;2023-12-20T06:33:08;99971.00;;;4.26;100.00
62418;BME280;48456;54.242;10.280;2023-12-20T06:35:36;99966.66;;;4.29;100.00
62418;BME280;48456;54.242;10.280;2023-12-20T06:38:03;99950.97;;;4.33;100.00
62418;BME280;48456;54.242;10.280;2023-12-20T06:40:29;99943.13;;;4.33;100.00
62418;BME280;48456;54.242;10.280;2023-12-20T06:42:56;99952.69;;;4.27;100.00
62418;BME280;48456;54.242;10.280;2023-12-20T06:45:34;99960.50;;;4.23;100.00
62418;BME280;48456;54.242;10.280;2023-12-20T06:48:00;99955.25;;;4.23;100.00
62418;BME280;48456;54.242;10.280;2023-12-20T06:50:27;99964.88;;;4.25;100.00
62418;BME280;48456;54.242;10.280;2023-12-20T06:52:53;99955.34;;;4.31;100.00
62418;BME280;48456;54.242;10.280;2023-12-20T06:55:20;99953.63;;;4.36;100.00
62418;BME280;48456;54.242;10.280;2023-12-20T06:57:46;99969.38;;;4.39;100.00
62418;BME280;48456;54.242;10.280;2023-12-20T07:00:13;99966.75;;;4.42;100.00
62418;BME280;48456;54.242;10.280;2023-12-20T07:02:40;99970.28;;;4.44;100.00
62418;BME280;48456;54.242;10.280;2023-12-20T07:05:06;99947.59;;;4.48;100.00
62418;BME280;48456;54.242;10.280;2023-12-20T07:07:33;99949.38;;;4.52;100.00
62418;BME280;48456;54.242;10.280;2023-12-20T07:10:00;99958.97;;;4.54;100.00
62418;BME280;48456;54.242;10.280;2023-12-20T07:12:26;99953.75;;;4.54;100.00
62418;BME280;48456;54.242;10.280;2023-12-20T07:14:53;99952.88;;;4.55;100.00
62418;BME280;48456;54.242;10.280;2023-12-20T07:17:19;99947.63;;;4.55;100.00
62418;BME280;48456;54.242;10.280;2023-12-20T07:19:46;99939.78;;;4.55;100.00
62418;BME280;48456;54.242;10.280;2023-12-20T07:22:12;99937.16;;;4.57;100.00
62418;BME280;48456;54.242;10.280;2023-12-20T07:24:39;99938.03;;;4.56;100.00
62418;BME280;48456;54.242;10.280;2023-12-20T07:27:05;99936.31;;;4.57;100.00
62418;BME280;48456;54.242;10.280;2023-12-20T07:29:32;99931.88;;;4.49;100.00
62418;BME280;48456;54.242;10.280;2023-12-20T07:31:58;99926.59;;;4.45;100.00
62418;BME280;48456;54.242;10.280;2023-12-20T07:34:25;99929.25;;;4.43;100.00
62418;BME280;48456;54.242;10.280;2023-12-20T07:36:52;99937.94;;;4.42;100.00
62418;BME280;48456;54.242;10.280;2023-12-20T07:39:18;99944.09;;;4.44;100.00
62418;BME280;48456;54.242;10.280;2023-12-20T07:41:45;99938.84;;;4.46;100.00
62418;BME280;48456;54.242;10.280;2023-12-20T07:44:12;99939.72;;;4.46;100.00
62418;BME280;48456;54.242;10.280;2023-12-20T07:46:38;99935.34;;;4.45;100.00
62418;BME280;48456;54.242;10.280;2023-12-20T07:49:05;99936.22;;;4.42;100.00
62418;BME280;48456;54.242;10.280;2023-12-20T07:51:31;99923.06;;;4.38;100.00
62418;BME280;48456;54.242;10.280;2023-12-20T07:53:58;99919.59;;;4.36;100.00
62418;BME280;48456;54.242;10.280;2023-12-20T07:56:24;99911.69;;;4.33;100.00
62418;BME280;48456;54.242;10.280;2023-12-20T07:58:51;99902.97;;;4.32;100.00
62418;BME280;48456;54.242;10.280;2023-12-20T08:01:19;99903.84;;;4.33;100.00
62418;BME280;48456;54.242;10.280;2023-12-20T08:03:47;99902.09;;;4.36;100.00
62418;BME280;48456;54.242;10.280;2023-12-20T08:06:14;99891.66;;;4.38;100.00
62418;BME280;48456;54.242;10.280;2023-12-20T08:08:41;99890.81;;;4.39;100.00
62418;BME280;48456;54.242;10.280;2023-12-20T08:11:10;99899.53;;;4.41;100.00
62418;BME280;48456;54.242;10.280;2023-12-20T08:13:36;99898.69;;;4.44;100.00
62418;BME280;48456;54.242;10.280;2023-12-20T08:16:03;99903.94;;;4.45;100.00
62418;BME280;48456;54.242;10.280;2023-12-20T08:18:31;99903.06;;;4.48;100.00
62418;BME280;48456;54.242;10.280;2023-12-20T08:20:58;99912.66;;;4.49;100.00
62418;BME280;48456;54.242;10.280;2023-12-20T08:23:24;99884.75;;;4.51;100.00
62418;BME280;48456;54.242;10.280;2023-12-20T08:25:53;99876.94;;;4.54;100.00
62418;BME280;48456;54.242;10.280;2023-12-20T08:28:19;99863.81;;;4.57;100.00
62418;BME280;48456;54.242;10.280;2023-12-20T08:30:46;99858.59;;;4.59;100.00
62418;BME280;48456;54.242;10.280;2023-12-20T08:33:13;99842.88;;;4.57;100.00
62418;BME280;48456;54.242;10.280;2023-12-20T08:35:39;99838.53;;;4.58;100.00
62418;BME280;48456;54.242;10.280;2023-12-20T08:38:06;99837.63;;;4.57;100.00
62418;BME280;48456;54.242;10.280;2023-12-20T08:40:33;99851.56;;;4.53;100.00
62418;BME280;48456;54.242;10.280;2023-12-20T08:43:00;99857.66;;;4.44;100.00
62418;BME280;48456;54.242;10.280;2023-12-20T08:45:27;99863.75;;;4.40;100.00
62418;BME280;48456;54.242;10.280;2023-12-20T08:47:53;99880.31;;;4.40;100.00
62418;BME280;48456;54.242;10.280;2023-12-20T08:50:21;99877.72;;;4.42;100.00
62418;BME280;48456;54.242;10.280;2023-12-20T08:52:48;99870.75;;;4.44;100.00
62418;BME280;48456;54.242;10.280;2023-12-20T08:55:14;99858.53;;;4.41;100.00
62418;BME280;48456;54.242;10.280;2023-12-20T08:57:42;99864.63;;;4.42;100.00
62418;BME280;48456;54.242;10.280;2023-12-20T09:00:09;99863.72;;;4.38;100.00
62418;BME280;48456;54.242;10.280;2023-12-20T09:02:36;99868.00;;;4.21;100.00
62418;BME280;48456;54.242;10.280;2023-12-20T09:05:03;99865.31;;;4.13;100.00
62418;BME280;48456;54.242;10.280;2023-12-20T09:07:30;99877.47;;;4.08;100.00
62418;BME280;48456;54.242;10.280;2023-12-20T09:09:58;99863.53;;;4.07;100.00
62418;BME280;48456;54.242;10.280;2023-12-20T09:12:24;99868.78;;;4.07;100.00
62418;BME280;48456;54.242;10.280;2023-12-20T09:14:51;99897.56;;;4.06;100.00
62418;BME280;48456;54.242;10.280;2023-12-20T09:17:18;99890.56;;;4.03;100.00
62418;BME280;48456;54.242;10.280;2023-12-20T09:19:45;99899.22;;;3.97;100.00
62418;BME280;48456;54.242;10.280;2023-12-20T09:22:12;99924.47;;;3.94;100.00
62418;BME280;48456;54.242;10.280;2023-12-20T09:24:38;99927.09;;;3.90;100.00
62418;BME280;48456;54.242;10.280;2023-12-20T09:27:05;99926.19;;;3.88;100.00
62418;BME280;48456;54.242;10.280;2023-12-20T09:29:32;99936.63;;;3.87;100.00
62418;BME280;48456;54.242;10.280;2023-12-20T09:31:58;99942.75;;;3.87;100.00
62418;BME280;48456;54.242;10.280;2023-12-20T09:34:25;99935.75;;;3.85;100.00
62418;BME280;48456;54.242;10.280;2023-12-20T09:36:55;99957.50;;;3.79;100.00
62418;BME280;48456;54.242;10.280;2023-12-20T09:39:22;99948.78;;;3.80;100.00
62418;BME280;48456;54.242;10.280;2023-12-20T09:42:02;99960.16;;;3.82;100.00
62418;BME280;48456;54.242;10.280;2023-12-20T09:44:29;99961.88;;;3.82;100.00
62418;BME280;48456;54.242;10.280;2023-12-20T09:46:56;99961.00;;;3.83;100.00
62418;BME280;48456;54.242;10.280;2023-12-20T09:49:23;99961.00;;;3.83;100.00
62418;BME280;48456;54.242;10.280;2023-12-20T09:51:50;99974.97;;;3.82;100.00
62418;BME280;48456;54.242;10.280;2023-12-20T09:54:17;99975.88;;;3.84;100.00
62418;BME280;48456;54.242;10.280;2023-12-20T09:56:44;99968.00;;;3.82;100.00
62418;BME280;48456;54.242;10.280;2023-12-20T09:59:13;99990.59;;;3.75;100.00
62418;BME280;48456;54.242;10.280;2023-12-20T10:01:40;99991.44;;;3.74;100.00
62418;BME280;48456;54.242;10.280;2023-12-20T10:04:07;99976.59;;;3.72;100.00
62418;BME280;48456;54.242;10.280;2023-12-20T10:06:55;99971.44;;;3.78;100.00
62418;BME280;48456;54.242;10.280;2023-12-20T10:09:23;99966.22;;;3.80;100.00
62418;BME280;48456;54.242;10.280;2023-12-20T10:11:50;99976.63;;;3.73;100.00
62418;BME280;48456;54.242;10.280;2023-12-20T10:14:20;99970.47;;;3.68;100.00
62418;BME280;48456;54.242;10.280;2023-12-20T10:16:49;99962.66;;;3.71;100.00
62418;BME280;48456;54.242;10.280;2023-12-20T10:19:16;99961.81;;;3.74;100.00
62418;BME280;48456;54.242;10.280;2023-12-20T10:21:43;99949.66;;;3.79;100.00
62418;BME280;48456;54.242;10.280;2023-12-20T10:24:11;99940.19;;;3.94;100.00
62418;BME280;48456;54.242;10.280;2023-12-20T10:26:42;99954.22;;;4.03;100.00
62418;BME280;48456;54.242;10.280;2023-12-20T10:29:09;99967.31;;;4.05;100.00
62418;BME280;48456;54.242;10.280;2023-12-20T10:31:36;99951.69;;;4.10;100.00
62418;BME280;48456;54.242;10.280;2023-12-20T10:34:02;99949.09;;;4.16;100.00
62418;BME280;48456;54.242;10.280;2023-12-20T10:36:30;99968.34;;;4.23;100.00
62418;BME280;48456;54.242;10.280;2023-12-20T10:38:57;99878.41;;;4.11;100.00
62418;BME280;48456;54.242;10.280;2023-12-20T10:41:24;100009.09;;;3.94;100.00
62418;BME280;48456;54.242;10.280;2023-12-20T10:43:51;100152.97;;;3.89;100.00
62418;BME280;48456;54.242;10.280;2023-12-20T10:46:19;100254.06;;;3.84;100.00
62418;BME280;48456;54.242;10.280;2023-12-20T10:48:46;100303.75;;;3.83;100.00
62418;BME280;48456;54.242;10.280;2023-12-20T10:51:14;100341.38;;;3.88;100.00
62418;BME280;48456;54.242;10.280;2023-12-20T10:53:43;100399.03;;;3.94;100.00
62418;BME280;48456;54.242;10.280;2023-12-20T10:56:15;100419.16;;;3.98;100.00
62418;BME280;48456;54.242;10.280;2023-12-20T10:58:42;100462.91;;;4.06;100.00
62418;BME280;48456;54.242;10.280;2023-12-20T11:01:10;100485.66;;;4.10;100.00
62418;BME280;48456;54.242;10.280;2023-12-20T11:03:38;100518.94;;;4.17;100.00
62418;BME280;48456;54.242;10.280;2023-12-20T11:06:10;100540.88;;;4.22;100.00
62418;BME280;48456;54.242;10.280;2023-12-20T11:11:25;100594.31;;;4.35;100.00
62418;BME280;48456;54.242;10.280;2023-12-20T11:16:23;100501.13;;;3.96;100.00
62418;BME280;48456;54.242;10.280;2023-12-20T11:18:51;100468.63;;;3.84;100.00
62418;BME280;48456;54.242;10.280;2023-12-20T11:21:18;100408.19;;;3.67;100.00
62418;BME280;48456;54.242;10.280;2023-12-20T11:23:45;100371.38;;;3.58;100.00
62418;BME280;48456;54.242;10.280;2023-12-20T11:26:13;100359.13;;;3.55;100.00
62418;BME280;48456;54.242;10.280;2023-12-20T11:28:41;100353.88;;;3.52;100.00
62418;BME280;48456;54.242;10.280;2023-12-20T11:31:08;100349.53;;;3.54;100.00
62418;BME280;48456;54.242;10.280;2023-12-20T11:33:37;100354.84;;;3.59;100.00
62418;BME280;48456;54.242;10.280;2023-12-20T11:36:06;100361.03;;;3.64;100.00
62418;BME280;48456;54.242;10.280;2023-12-20T11:38:38;100409.25;;;3.80;100.00
62418;BME280;48456;54.242;10.280;2023-12-20T11:41:06;100440.91;;;3.94;100.00
62418;BME280;48456;54.242;10.280;2023-12-20T11:43:36;100473.41;;;4.07;100.00
62418;BME280;48456;54.242;10.280;2023-12-20T11:46:06;100499.72;;;4.15;100.00
62418;BME280;48456;54.242;10.280;2023-12-20T11:48:38;100476.06;;;4.10;100.00
62418;BME280;48456;54.242;10.280;2023-12-20T11:51:11;100460.25;;;4.04;100.00
62418;BME280;48456;54.242;10.280;2023-12-20T11:53:37;100454.16;;;4.05;100.00
62418;BME280;48456;54.242;10.280;2023-12-20T11:56:05;100438.38;;;4.00;100.00
62418;BME280;48456;54.242;10.280;2023-12-20T11:58:33;100421.81;;;4.00;100.00
62418;BME280;48456;54.242;10.280;2023-12-20T12:00:59;100434.91;;;4.01;100.00
62418;BME280;48456;54.242;10.280;2023-12-20T12:03:26;100422.66;;;3.99;100.00
62418;BME280;48456;54.242;10.280;2023-12-20T12:05:52;100412.16;;;3.97;100.00
62418;BME280;48456;54.242;10.280;2023-12-20T12:08:19;100403.44;;;3.98;100.00
62418;BME280;48456;54.242;10.280;2023-12-20T12:10:45;100428.03;;;4.07;100.00
62418;BME280;48456;54.242;10.280;2023-12-20T12:13:12;100435.97;;;4.13;100.00
62418;BME280;48456;54.242;10.280;2023-12-20T12:15:40;100431.56;;;4.10;100.00
62418;BME280;48456;54.242;10.280;2023-12-20T12:18:08;100434.22;;;4.13;100.00
62418;BME280;48456;54.242;10.280;2023-12-20T12:20:34;100423.72;;;4.12;100.00
62418;BME280;48456;54.242;10.280;2023-12-20T12:23:04;100422.88;;;4.13;100.00
62418;BME280;48456;54.242;10.280;2023-12-20T12:25:31;100421.16;;;4.15;100.00
62418;BME280;48456;54.242;10.280;2023-12-20T12:27:58;100421.16;;;4.15;100.00
62418;BME280;48456;54.242;10.280;2023-12-20T12:30:25;100444.88;;;4.24;100.00
62418;BME280;48456;54.242;10.280;2023-12-20T12:32:58;100487.09;;;4.45;100.00
62418;BME280;48456;54.242;10.280;2023-12-20T12:35:24;100549.41;;;4.64;100.00
62418;BME280;48456;54.242;10.280;2023-12-20T12:37:51;100553.88;;;4.70;100.00
62418;BME280;48456;54.242;10.280;2023-12-20T12:40:17;100548.59;;;4.68;100.00
62418;BME280;48456;54.242;10.280;2023-12-20T12:42:44;100545.97;;;4.68;100.00
62418;BME280;48456;54.242;10.280;2023-12-20T12:45:11;100567.03;;;4.73;100.00
62418;BME280;48456;54.242;10.280;2023-12-20T12:47:37;100566.13;;;4.73;100.00